Vivian, SD (57576)

5:58 AM CDT on July 29, 2014 (GMT -0500)
RAWS FORT PIERRE SD US (MRFPS2) Elev 2273 ft | 44.12 °N, 100.30 °W | Change Station

Current weather conditions updated 59 minutes ago

Clear
Clear
58 °F
Feels Like 58 °F
N
7
Wind Variable Wind from SSE
Gusts 8.0 mph

Today is forecast to be Warmer than yesterday.

Today
High -- | Low -- °F
--% Chance of Precip.
Yesterday
High -- | Low -- °F
Precip. -- in
6:26 AM 9:08 PM
Waxing Crescent, 6% visible
Pressure 30.19 in
Visibility 10.0 miles
Clouds Clear
Dew Point 50 °F
Humidity 76%
Rainfall 0.00 in
Snow Depth Not available.
UV 0 out of 12
Pollen 6.60 out of 12
Air Quality Not available.
Flu Activity Not available.
METAR KPIR 291053Z AUTO 09003KT 10SM CLR 11/10 A3021 RMK AO2 SLP223 T01110100

More Conditions Fewer Conditions

Pressure 30.19 in
Visibility 10.0 miles
Clouds Clear
Dew Point 50 °F
Humidity 76%
Rainfall 0.00 in
Snow Depth Not available.
UV 0 out of 12
Pollen 6.60 out of 12
Air Quality Not available.
Flu Activity Not available.
METAR KPIR 291053Z AUTO 09003KT 10SM CLR 11/10 A3021 RMK AO2 SLP223 T01110100

More Conditions Fewer Conditions

10-Day Weather Forecast

Almanac

Astronomy

Jul. 29, 2014 Rise Set
Actual Time 6:26 AM CDT 9:08 PM CDT
Civil Twilight 5:52 AM CDT 9:41 PM CDT
Nautical Twilight 5:10 AM CDT 10:23 PM CDT
Astronomical Twilight 4:22 AM CDT 11:11 PM CDT
Moon 9:11 AM CDT 10:13 PM CDT
Length of Visible Light 15h 49m
Length of Day
14h 42m
Tomorrow will be 2m 13s shorter.
Waxing Crescent, 6% of the Moon is Illuminated
Today
Waxing Crescent
Aug 3
First Quarter
Aug 10
Full
Aug 17
Last Quarter
Aug 25
New

Today's Extremes

State Highs State Lows

Community

WunderPhotos

Upload Photos

1,738,683 photos uploaded!

Nearby

Snow Depth

Station Depth Elevation
North Rapid Creek 0 in 6130 ft
Blind Park 0 in 6890 ft

Earthquake Activity

City Distance Mag. Time & Date
No recent earthquake activity has been reported nearby.
Minimum magnitude displayed is 2.5.

Coastal Water Temperatures

Place Temperature
No Stations Reporting

Nearby Weather Stations

Station Location Temp. Dew Point Humidity Wind Precip. Elev Updated Type
RAWS FORT PIERRE SD, Vivian, SD 58 °F 50 °F 76% SSE  at  7 mph 0.00 in / hr 2273 ft 4:59 AM CDT MADIS
HADS BAD RIVER NEAR FORT PIERRE SD, Fort Pierre, SD 52 °F - - North  at  - 0.00 in / hr 1430 ft 4:30 AM MDT MADIS
East of Hospital; Pierre, SD, Pierre, SD 56.4 °F 53 °F 89% East  at  0.0 mph 0.00 in / hr 1430 ft 5:55 AM CDT Normal
HADS MISSOURI RIVER AT PIERRE SD, Fort Pierre, SD 57 °F - - North  at  - 0.00 in / hr 1414 ft 4:15 AM MDT MADIS

Show More Stations Show Fewer Stations